createdAt,value
2018-11-25T00:00:55.390Z,68.50
2018-11-25T00:03:27.467Z,68.30
2018-11-25T00:05:59.476Z,62.57
2018-11-25T00:08:31.581Z,67.87
2018-11-25T00:11:03.552Z,65.70
2018-11-25T00:13:35.605Z,65.83
2018-11-25T00:16:08.020Z,62.37
2018-11-25T00:18:40.337Z,67.80
2018-11-25T00:21:12.460Z,66.67
2018-11-25T00:23:44.527Z,65.27
2018-11-25T00:26:16.599Z,62.03
2018-11-25T00:28:48.648Z,63.83
2018-11-25T00:31:20.665Z,64.47
2018-11-25T00:33:53.007Z,67.33
2018-11-25T00:36:25.213Z,63.90
2018-11-25T00:38:57.347Z,60.57
2018-11-25T00:41:29.528Z,60.40
2018-11-25T00:44:01.583Z,62.43
2018-11-25T00:46:33.694Z,64.83
2018-11-25T00:49:05.763Z,64.30
2018-11-25T00:51:37.846Z,63.23
2018-11-25T00:54:09.874Z,64.07
2018-11-25T00:56:41.921Z,65.03
2018-11-25T00:59:13.926Z,59.57
2018-11-25T01:01:45.961Z,61.60
2018-11-25T01:04:18.008Z,61.93
2018-11-25T01:06:50.015Z,64.57
2018-11-25T01:09:22.067Z,59.60
2018-11-25T01:11:54.077Z,63.53
2018-11-25T01:14:26.174Z,60.00
2018-11-25T01:16:58.227Z,61.17
2018-11-25T01:19:30.278Z,61.70
2018-11-25T01:22:02.303Z,59.63
2018-11-25T01:24:34.330Z,58.53
2018-11-25T01:27:06.327Z,59.03
2018-11-25T01:29:38.381Z,60.43
2018-11-25T01:32:10.398Z,57.53
2018-11-25T01:34:42.440Z,56.27
2018-11-25T01:37:14.598Z,59.57
2018-11-25T01:39:46.650Z,60.63
2018-11-25T01:42:18.670Z,55.17
2018-11-25T01:44:50.702Z,58.77
2018-11-25T01:47:22.732Z,56.60
2018-11-25T01:49:54.746Z,58.37
2018-11-25T01:52:26.767Z,57.20
2018-11-25T01:54:58.792Z,62.50
2018-11-25T01:57:30.816Z,55.27
2018-11-25T02:00:03.280Z,54.27
2018-11-25T02:02:35.351Z,53.57
2018-11-25T02:05:07.545Z,56.93
2018-11-25T02:07:39.642Z,57.87
2018-11-25T02:10:15.896Z,58.13
2018-11-25T02:12:48.020Z,59.37
2018-11-25T02:15:20.096Z,55.83
2018-11-25T02:17:52.172Z,56.13
2018-11-25T02:20:24.494Z,58.13
2018-11-25T02:22:56.520Z,59.30
2018-11-25T02:25:28.836Z,57.97
2018-11-25T02:28:00.991Z,58.87
2018-11-25T02:30:33.207Z,57.90
2018-11-25T02:33:05.402Z,59.83
2018-11-25T02:35:37.594Z,58.10
2018-11-25T02:38:09.881Z,58.57
2018-11-25T02:40:42.015Z,59.30
2018-11-25T02:43:14.180Z,59.83
2018-11-25T02:45:46.346Z,55.40
2018-11-25T02:48:18.464Z,56.90
2018-11-25T02:50:50.470Z,54.40
2018-11-25T02:53:22.544Z,52.67
2018-11-25T02:55:54.555Z,54.00
2018-11-25T02:58:26.629Z,55.40
2018-11-25T03:01:03.407Z,55.53
2018-11-25T03:03:35.987Z,53.73
2018-11-25T03:06:08.111Z,54.50
2018-11-25T03:08:40.284Z,52.97
2018-11-25T03:11:12.443Z,55.43
2018-11-25T03:13:49.559Z,55.53
2018-11-25T03:16:21.775Z,56.27
2018-11-25T03:18:53.823Z,54.63
2018-11-25T03:21:25.858Z,55.17
2018-11-25T03:23:57.929Z,55.17
2018-11-25T03:26:29.980Z,50.43
2018-11-25T03:29:02.067Z,54.60
2018-11-25T03:31:34.138Z,53.80
2018-11-25T03:34:06.228Z,54.03
2018-11-25T03:36:38.262Z,53.30
2018-11-25T03:39:10.353Z,54.07
2018-11-25T03:41:42.386Z,53.53
2018-11-25T03:44:14.428Z,52.53
2018-11-25T03:46:46.452Z,54.13
2018-11-25T03:49:18.490Z,53.97
2018-11-25T03:51:50.592Z,53.93
2018-11-25T03:54:22.623Z,54.67
2018-11-25T03:56:54.721Z,53.97
2018-11-25T03:59:26.762Z,54.00
2018-11-25T04:01:58.783Z,53.33
2018-11-25T04:04:30.807Z,53.00
2018-11-25T04:07:02.845Z,53.60
2018-11-25T04:09:35.165Z,54.63
2018-11-25T04:12:07.207Z,54.20
2018-11-25T04:14:39.407Z,52.43
2018-11-25T04:17:11.478Z,55.07
2018-11-25T04:19:43.604Z,54.77
2018-11-25T04:22:15.685Z,53.97
2018-11-25T04:24:47.750Z,56.77
2018-11-25T04:27:19.883Z,55.37
2018-11-25T04:29:52.072Z,54.30
2018-11-25T04:32:24.136Z,53.93
2018-11-25T04:34:56.206Z,55.57
2018-11-25T04:37:28.320Z,57.20
2018-11-25T04:40:00.471Z,55.73
2018-11-25T04:42:32.670Z,55.13
2018-11-25T04:45:06.497Z,57.10
2018-11-25T04:47:38.707Z,56.50
2018-11-25T04:50:12.878Z,56.20
2018-11-25T04:52:44.993Z,52.53
2018-11-25T04:55:17.128Z,53.70
2018-11-25T04:57:51.830Z,53.60
2018-11-25T05:00:23.940Z,54.00
2018-11-25T05:02:56.123Z,57.73
2018-11-25T05:05:28.309Z,54.47
2018-11-25T05:08:00.491Z,52.50
2018-11-25T05:10:32.673Z,55.37
2018-11-25T05:13:04.924Z,53.77
2018-11-25T05:15:37.023Z,53.37
2018-11-25T05:18:09.172Z,51.47
2018-11-25T05:20:41.245Z,51.20
2018-11-25T05:23:13.407Z,49.93
2018-11-25T05:25:45.504Z,50.23
2018-11-25T05:28:17.655Z,47.97
2018-11-25T05:30:49.796Z,50.47
2018-11-25T05:33:22.023Z,51.13
2018-11-25T05:35:54.076Z,48.27
2018-11-25T05:38:26.134Z,50.27
2018-11-25T05:40:58.219Z,49.20
2018-11-25T05:43:30.251Z,48.57
2018-11-25T05:46:02.286Z,48.67
2018-11-25T05:48:34.345Z,47.03
2018-11-25T05:51:06.383Z,48.33
2018-11-25T05:53:38.411Z,47.23
2018-11-25T05:56:10.420Z,48.97
2018-11-25T05:58:42.458Z,50.13
2018-11-25T06:01:14.476Z,48.57
2018-11-25T06:03:46.511Z,50.93
2018-11-25T06:06:18.564Z,50.17
2018-11-25T06:08:50.590Z,50.20
2018-11-25T06:11:22.633Z,50.07
2018-11-25T06:13:54.782Z,50.17
2018-11-25T06:16:26.834Z,49.53
2018-11-25T06:18:58.874Z,50.37
2018-11-25T06:21:30.938Z,48.90
2018-11-25T06:24:02.953Z,49.53
2018-11-25T06:26:34.987Z,48.83
2018-11-25T06:29:07.002Z,51.33
2018-11-25T06:31:39.031Z,50.67
2018-11-25T06:34:11.024Z,52.03
2018-11-25T06:36:43.070Z,48.17
2018-11-25T06:39:15.121Z,48.90
2018-11-25T06:41:47.228Z,48.73
2018-11-25T06:44:19.291Z,49.23
2018-11-25T06:46:51.356Z,50.17
2018-11-25T06:49:23.425Z,48.40
2018-11-25T06:51:55.458Z,50.63
2018-11-25T06:54:27.534Z,51.23
2018-11-25T06:56:59.700Z,49.77
2018-11-25T06:59:31.869Z,53.07
2018-11-25T07:02:04.251Z,52.50
2018-11-25T07:04:36.436Z,50.87
2018-11-25T07:07:08.747Z,50.17
2018-11-25T07:09:40.838Z,49.73
2018-11-25T07:12:12.973Z,49.80
2018-11-25T07:14:45.139Z,48.70
2018-11-25T07:17:17.184Z,48.33
2018-11-25T07:19:49.259Z,47.10
2018-11-25T07:22:21.499Z,46.80
2018-11-25T07:24:53.520Z,45.57
2018-11-25T07:27:25.643Z,45.33
2018-11-25T07:29:57.790Z,46.23
2018-11-25T07:32:29.965Z,45.97
2018-11-25T07:35:02.041Z,44.37
2018-11-25T07:37:34.416Z,45.73
2018-11-25T07:40:16.866Z,45.40
2018-11-25T07:42:49.048Z,42.83
2018-11-25T07:45:29.781Z,44.13
2018-11-25T07:47:54.379Z,44.93
2018-11-25T07:50:26.426Z,43.80
2018-11-25T07:52:58.555Z,44.60
2018-11-25T07:55:30.652Z,41.17
2018-11-25T07:58:02.891Z,42.77
2018-11-25T08:00:34.999Z,42.83
2018-11-25T08:03:07.017Z,43.30
2018-11-25T08:05:39.141Z,43.07
2018-11-25T08:08:11.328Z,43.83
2018-11-25T08:10:43.420Z,44.77
2018-11-25T08:13:15.610Z,42.60
2018-11-25T08:15:47.684Z,42.07
2018-11-25T08:18:19.793Z,42.43
2018-11-25T08:20:52.002Z,40.50
2018-11-25T08:23:24.166Z,38.73
2018-11-25T08:25:56.174Z,40.43
2018-11-25T08:28:28.366Z,40.23
2018-11-25T08:31:00.475Z,40.87
2018-11-25T08:33:32.529Z,38.97
2018-11-25T08:36:05.443Z,40.73
2018-11-25T08:38:37.924Z,42.57
2018-11-25T08:41:10.051Z,38.67
2018-11-25T08:43:42.198Z,37.77
2018-11-25T08:46:14.337Z,41.43
2018-11-25T08:48:46.331Z,39.07
2018-11-25T08:51:18.430Z,40.73
2018-11-25T08:53:50.519Z,40.53
2018-11-25T08:56:22.710Z,39.37
2018-11-25T08:58:54.844Z,37.57
2018-11-25T09:01:27.737Z,40.23
2018-11-25T09:03:59.884Z,37.17
2018-11-25T09:06:32.037Z,37.70
2018-11-25T09:09:07.152Z,35.77
2018-11-25T09:11:39.266Z,37.03
2018-11-25T09:14:11.339Z,38.57
2018-11-25T09:16:43.427Z,36.00
2018-11-25T09:19:15.576Z,34.90
2018-11-25T09:21:47.648Z,37.97
2018-11-25T09:24:19.736Z,36.90
2018-11-25T09:26:51.932Z,36.40
2018-11-25T09:29:24.027Z,36.97
2018-11-25T09:31:56.096Z,33.17
2018-11-25T09:34:28.198Z,34.23
2018-11-25T09:37:00.407Z,34.77
2018-11-25T09:39:32.472Z,37.23
2018-11-25T09:42:04.991Z,33.80
2018-11-25T09:44:37.016Z,34.97
2018-11-25T09:47:09.063Z,34.90
2018-11-25T09:49:41.103Z,36.37
2018-11-25T09:52:13.226Z,33.23
2018-11-25T09:54:45.251Z,33.27
2018-11-25T09:57:17.384Z,32.83
2018-11-25T09:59:49.671Z,33.67
2018-11-25T10:02:21.779Z,34.63
2018-11-25T10:04:54.018Z,33.60
2018-11-25T10:07:26.365Z,32.40
2018-11-25T10:09:58.420Z,31.47
2018-11-25T10:12:30.581Z,31.17
2018-11-25T10:15:02.674Z,30.63
2018-11-25T10:17:34.886Z,32.53
2018-11-25T10:20:12.476Z,30.43
2018-11-25T10:22:44.888Z,32.27
2018-11-25T10:25:17.243Z,32.97
2018-11-25T10:27:49.296Z,34.80
2018-11-25T10:30:22.420Z,32.20
2018-11-25T10:32:55.818Z,33.20
2018-11-25T10:35:27.815Z,31.97
2018-11-25T10:37:59.876Z,32.43
2018-11-25T10:40:31.971Z,30.90
2018-11-25T10:43:04.092Z,29.03
2018-11-25T10:45:36.355Z,29.37
2018-11-25T10:48:08.520Z,29.13
2018-11-25T10:50:40.599Z,29.33
2018-11-25T10:53:12.659Z,28.90
2018-11-25T10:55:44.651Z,29.70
2018-11-25T10:58:16.744Z,29.60
2018-11-25T11:00:54.132Z,28.03
2018-11-25T11:03:31.976Z,29.17
2018-11-25T11:06:09.689Z,31.70
2018-11-25T11:08:41.729Z,31.60
2018-11-25T11:11:13.859Z,32.47
2018-11-25T11:13:45.936Z,32.53
2018-11-25T11:16:17.970Z,32.40
2018-11-25T11:18:50.072Z,29.97
2018-11-25T11:21:22.128Z,30.97
2018-11-25T11:23:54.171Z,32.73
2018-11-25T11:26:26.182Z,32.83
2018-11-25T11:28:58.234Z,33.10
2018-11-25T11:31:30.259Z,31.30
2018-11-25T11:34:02.341Z,30.33
2018-11-25T11:36:34.359Z,31.63
2018-11-25T11:39:08.408Z,33.63
2018-11-25T11:41:40.449Z,31.40
2018-11-25T11:44:12.510Z,32.63
2018-11-25T11:46:44.571Z,33.20
2018-11-25T11:49:16.646Z,32.33
2018-11-25T11:51:48.668Z,32.00
2018-11-25T11:54:20.799Z,33.33
2018-11-25T11:56:52.816Z,32.83
2018-11-25T11:59:24.883Z,32.67
2018-11-25T12:01:57.561Z,33.93
2018-11-25T12:04:29.626Z,34.23
2018-11-25T12:07:01.639Z,33.60
2018-11-25T12:09:33.684Z,34.70
2018-11-25T12:12:05.748Z,31.50
2018-11-25T12:14:37.760Z,33.63
2018-11-25T12:17:09.816Z,34.17
2018-11-25T12:19:41.838Z,34.43
2018-11-25T12:22:13.919Z,32.40
2018-11-25T12:24:45.978Z,31.83
2018-11-25T12:27:18.047Z,32.57
2018-11-25T12:29:50.097Z,31.93
2018-11-25T12:32:22.155Z,33.90
2018-11-25T12:34:54.188Z,32.47
2018-11-25T12:37:26.246Z,33.83
2018-11-25T12:39:58.281Z,32.70
2018-11-25T12:42:30.357Z,30.87
2018-11-25T12:45:02.429Z,33.67
2018-11-25T12:47:34.468Z,34.63
2018-11-25T12:50:09.252Z,36.60
2018-11-25T12:52:41.314Z,34.83
2018-11-25T12:55:14.712Z,37.67
2018-11-25T12:57:46.971Z,37.17
2018-11-25T13:00:25.280Z,37.20
2018-11-25T13:02:57.347Z,39.90
2018-11-25T13:05:29.371Z,40.20
2018-11-25T13:08:01.412Z,41.40
2018-11-25T13:10:33.452Z,40.70
2018-11-25T13:13:06.760Z,40.47
2018-11-25T13:15:38.862Z,41.73
2018-11-25T13:18:10.899Z,44.00
2018-11-25T13:20:42.970Z,43.87
2018-11-25T13:23:15.025Z,45.80
2018-11-25T13:25:47.076Z,49.03
2018-11-25T13:28:19.122Z,49.13
2018-11-25T13:30:51.156Z,50.17
2018-11-25T13:33:23.236Z,50.27
2018-11-25T13:35:55.263Z,48.23
2018-11-25T13:38:27.395Z,52.57
2018-11-25T13:40:59.413Z,51.30
2018-11-25T13:43:31.495Z,52.13
2018-11-25T13:46:03.520Z,49.97
2018-11-25T13:48:35.568Z,52.10
2018-11-25T13:51:07.984Z,48.87
2018-11-25T13:53:40.164Z,47.53
2018-11-25T13:56:12.108Z,47.20
2018-11-25T13:58:44.180Z,47.63
2018-11-25T14:01:16.251Z,50.73
2018-11-25T14:03:48.329Z,49.27
2018-11-25T14:06:20.358Z,49.77
2018-11-25T14:08:53.271Z,49.53
2018-11-25T14:11:25.334Z,52.27
2018-11-25T14:13:57.355Z,47.13
2018-11-25T14:16:29.424Z,48.53
2018-11-25T14:19:01.463Z,52.03
2018-11-25T14:21:33.512Z,49.17
2018-11-25T14:24:05.579Z,51.87
2018-11-25T14:26:41.336Z,51.33
2018-11-25T14:29:13.385Z,50.20
2018-11-25T14:31:45.445Z,49.17
2018-11-25T14:34:17.502Z,49.53
2018-11-25T14:36:49.573Z,46.50
2018-11-25T14:39:21.624Z,47.97
2018-11-25T14:41:53.681Z,47.57
2018-11-25T14:44:25.738Z,45.93
2018-11-25T14:46:57.816Z,46.90
2018-11-25T14:49:29.849Z,50.53
2018-11-25T14:52:01.922Z,51.23
2018-11-25T14:54:33.938Z,44.77
2018-11-25T14:57:06.001Z,43.90
2018-11-25T14:59:38.073Z,49.93
2018-11-25T15:02:10.161Z,50.30
2018-11-25T15:04:42.227Z,50.50
2018-11-25T15:07:14.301Z,50.17
2018-11-25T15:09:46.373Z,47.63
2018-11-25T15:12:18.436Z,46.07
2018-11-25T15:14:50.457Z,47.23
2018-11-25T15:17:22.560Z,47.93
2018-11-25T15:19:54.634Z,52.80
2018-11-25T15:22:26.756Z,48.73
2018-11-25T15:24:58.809Z,47.87
2018-11-25T15:27:30.919Z,47.47
2018-11-25T15:30:03.128Z,45.23
2018-11-25T15:32:35.299Z,47.27
2018-11-25T15:35:08.688Z,46.57
2018-11-25T15:37:43.426Z,48.90
2018-11-25T15:40:18.180Z,48.80
2018-11-25T15:42:50.289Z,47.77
2018-11-25T15:45:22.382Z,51.13
2018-11-25T15:47:57.962Z,47.97
2018-11-25T15:50:30.544Z,49.07
2018-11-25T15:53:02.660Z,50.87
2018-11-25T15:55:34.733Z,48.77
2018-11-25T15:58:07.167Z,49.43
2018-11-25T16:00:39.200Z,53.80
2018-11-25T16:03:12.161Z,47.83
2018-11-25T16:05:46.102Z,52.40
2018-11-25T16:08:18.199Z,50.60
2018-11-25T16:10:50.425Z,52.93
2018-11-25T16:13:22.702Z,50.43
2018-11-25T16:15:54.619Z,48.97
2018-11-25T16:18:26.720Z,48.73
2018-11-25T16:20:58.796Z,53.10
2018-11-25T16:23:30.884Z,51.07
2018-11-25T16:26:07.793Z,52.13
2018-11-25T16:28:41.575Z,52.53
2018-11-25T16:31:13.723Z,53.63
2018-11-25T16:33:45.852Z,52.40
2018-11-25T16:36:17.969Z,50.60
2018-11-25T16:38:50.010Z,55.13
2018-11-25T16:41:22.181Z,53.30
2018-11-25T16:43:54.272Z,55.40
2018-11-25T16:46:26.455Z,51.87
2018-11-25T16:48:58.544Z,52.57
2018-11-25T16:51:30.676Z,51.87
2018-11-25T16:54:02.823Z,52.37
2018-11-25T16:56:34.928Z,51.47
2018-11-25T16:59:07.054Z,48.80
2018-11-25T17:01:39.161Z,56.67
2018-11-25T17:04:11.231Z,57.03
2018-11-25T17:06:44.912Z,55.80
2018-11-25T17:09:17.025Z,60.40
2018-11-25T17:11:49.138Z,57.10
2018-11-25T17:14:21.273Z,57.53
2018-11-25T17:16:53.384Z,58.87
2018-11-25T17:19:25.471Z,60.47
2018-11-25T17:21:57.592Z,62.20
2018-11-25T17:24:29.676Z,58.30
2018-11-25T17:27:01.734Z,63.60
2018-11-25T17:29:33.838Z,61.67
2018-11-25T17:32:06.029Z,58.73
2018-11-25T17:34:38.149Z,59.87
2018-11-25T17:37:10.232Z,62.37
2018-11-25T17:39:42.354Z,62.50
2018-11-25T17:42:14.444Z,64.87
2018-11-25T17:44:46.570Z,66.70
2018-11-25T17:47:18.659Z,64.43
2018-11-25T17:49:50.745Z,62.43
2018-11-25T17:52:22.795Z,62.77
2018-11-25T17:54:54.895Z,55.73
2018-11-25T17:57:26.974Z,59.00
2018-11-25T17:59:59.006Z,56.93
2018-11-25T18:02:31.121Z,58.67
2018-11-25T18:05:03.159Z,56.20
2018-11-25T18:07:35.240Z,59.43
2018-11-25T18:10:09.190Z,61.47
2018-11-25T18:12:41.559Z,58.13
2018-11-25T18:15:15.973Z,61.97
2018-11-25T18:17:54.226Z,56.73
2018-11-25T18:20:40.441Z,60.50
2018-11-25T18:23:12.513Z,63.27
2018-11-25T18:25:44.583Z,62.20
2018-11-25T18:28:16.696Z,60.43
2018-11-25T18:30:48.780Z,60.27
2018-11-25T18:33:20.916Z,61.70
2018-11-25T18:35:53.159Z,58.77
2018-11-25T18:38:25.223Z,60.27
2018-11-25T18:40:57.282Z,60.90
2018-11-25T18:43:29.405Z,58.20
2018-11-25T18:46:01.654Z,62.00
2018-11-25T18:48:35.327Z,61.40
2018-11-25T18:51:07.759Z,59.67
2018-11-25T18:53:39.896Z,59.33
2018-11-25T18:56:12.071Z,59.63
2018-11-25T18:58:44.118Z,58.70
2018-11-25T19:01:20.275Z,63.10
2018-11-25T19:03:52.311Z,60.50
2018-11-25T19:06:25.700Z,62.57
2018-11-25T19:08:57.728Z,60.47
2018-11-25T19:11:29.799Z,61.73
2018-11-25T19:14:01.896Z,59.97
2018-11-25T19:16:34.028Z,57.63
2018-11-25T19:19:06.023Z,63.27
2018-11-25T19:21:38.147Z,60.50
2018-11-25T19:24:11.041Z,59.70
2018-11-25T19:26:43.096Z,63.10
2018-11-25T19:29:15.341Z,54.63
2018-11-25T19:31:47.487Z,61.23
2018-11-25T19:34:19.580Z,58.90
2018-11-25T19:36:51.624Z,58.37
2018-11-25T19:39:23.688Z,53.10
2018-11-25T19:41:55.741Z,65.37
2018-11-25T19:44:27.801Z,60.07
2018-11-25T19:46:59.903Z,58.30
2018-11-25T19:49:31.955Z,60.40
2018-11-25T19:52:04.028Z,60.20
2018-11-25T19:54:36.117Z,62.63
2018-11-25T19:57:08.180Z,46.03
2018-11-25T19:59:41.555Z,61.30
2018-11-25T20:02:14.228Z,57.13
2018-11-25T20:04:46.328Z,60.27
2018-11-25T20:07:18.426Z,57.40
2018-11-25T20:09:50.489Z,57.37
2018-11-25T20:12:28.428Z,58.07
2018-11-25T20:15:00.463Z,55.90
2018-11-25T20:17:32.519Z,54.57
2018-11-25T20:20:09.123Z,58.37
2018-11-25T20:22:41.196Z,57.10
2018-11-25T20:25:13.849Z,56.50
2018-11-25T20:27:47.708Z,55.00
2018-11-25T20:30:22.031Z,55.90
2018-11-25T20:32:59.997Z,56.53
2018-11-25T20:35:32.043Z,56.13
2018-11-25T20:38:10.403Z,55.60
2018-11-25T20:40:43.352Z,55.23
2018-11-25T20:43:15.405Z,58.67
2018-11-25T20:45:53.224Z,49.90
2018-11-25T20:48:25.537Z,53.77
2018-11-25T20:50:58.918Z,52.20
2018-11-25T20:53:36.849Z,54.80
2018-11-25T20:56:08.931Z,54.57
2018-11-25T20:58:40.983Z,42.57
2018-11-25T21:01:13.012Z,44.83
2018-11-25T21:03:45.035Z,48.00
2018-11-25T21:06:17.076Z,50.37
2018-11-25T21:08:49.093Z,43.93
2018-11-25T21:11:21.120Z,48.83
2018-11-25T21:13:53.126Z,45.97
2018-11-25T21:16:25.191Z,41.63
2018-11-25T21:18:57.216Z,47.90
2018-11-25T21:21:29.262Z,43.97
2018-11-25T21:24:01.280Z,45.00
2018-11-25T21:26:33.312Z,43.63
2018-11-25T21:29:05.364Z,44.00
2018-11-25T21:31:37.400Z,44.67
2018-11-25T21:34:09.466Z,44.03
2018-11-25T21:36:41.520Z,37.63
2018-11-25T21:39:13.535Z,40.00
2018-11-25T21:41:45.527Z,41.20
2018-11-25T21:44:17.600Z,42.27
2018-11-25T21:46:49.601Z,43.07
2018-11-25T21:49:21.627Z,41.37
2018-11-25T21:51:53.610Z,38.57
2018-11-25T21:54:25.635Z,36.63
2018-11-25T21:56:57.680Z,35.03
2018-11-25T21:59:29.700Z,34.07
2018-11-25T22:02:01.723Z,33.37
2018-11-25T22:04:33.737Z,31.70
2018-11-25T22:07:05.773Z,32.80
2018-11-25T22:09:37.782Z,29.43
2018-11-25T22:12:09.786Z,32.67
2018-11-25T22:14:41.778Z,33.37
2018-11-25T22:17:13.832Z,32.40
2018-11-25T22:19:45.867Z,36.10
2018-11-25T22:22:17.887Z,30.90
2018-11-25T22:24:49.886Z,28.80
2018-11-25T22:27:21.879Z,31.10
2018-11-25T22:29:53.902Z,33.77
2018-11-25T22:32:25.935Z,33.97
2018-11-25T22:34:57.977Z,37.03
2018-11-25T22:37:29.954Z,35.13
2018-11-25T22:40:01.984Z,34.67
2018-11-25T22:42:34.010Z,35.40
2018-11-25T22:45:07.527Z,34.73
2018-11-25T22:47:39.500Z,34.90
2018-11-25T22:50:12.715Z,35.60
2018-11-25T22:52:44.707Z,36.03
2018-11-25T22:55:20.663Z,36.43
2018-11-25T22:57:52.665Z,37.03
2018-11-25T23:00:27.059Z,36.43
2018-11-25T23:02:59.056Z,37.50
2018-11-25T23:05:42.719Z,36.83
2018-11-25T23:08:14.745Z,36.60
2018-11-25T23:10:46.838Z,34.00
2018-11-25T23:13:18.845Z,38.10
2018-11-25T23:15:50.868Z,40.17
2018-11-25T23:18:22.890Z,38.40
2018-11-25T23:20:54.863Z,38.00
2018-11-25T23:23:26.874Z,37.17
2018-11-25T23:25:58.920Z,36.27
2018-11-25T23:28:30.940Z,39.00
2018-11-25T23:31:02.984Z,37.50
2018-11-25T23:33:35.003Z,37.03
2018-11-25T23:36:07.014Z,36.93
2018-11-25T23:38:39.036Z,36.90
2018-11-25T23:41:11.054Z,26.83
2018-11-25T23:43:43.063Z,30.27
2018-11-25T23:46:15.055Z,35.53
2018-11-25T23:48:47.086Z,27.53
2018-11-25T23:51:19.094Z,32.47
2018-11-25T23:53:51.135Z,27.83
2018-11-25T23:56:23.154Z,27.93
2018-11-25T23:58:55.167Z,31.10
